createdAt,value
2023-03-19T00:00:45.828Z,1.67
2023-03-19T00:03:13.483Z,1.70
2023-03-19T00:05:41.782Z,2.00
2023-03-19T00:08:09.330Z,2.00
2023-03-19T00:10:39.969Z,1.50
2023-03-19T00:13:07.588Z,2.13
2023-03-19T00:15:35.586Z,1.37
2023-03-19T00:18:03.342Z,1.20
2023-03-19T00:20:30.866Z,1.70
2023-03-19T00:22:58.496Z,1.50
2023-03-19T00:25:26.047Z,1.50
2023-03-19T00:27:53.738Z,1.43
2023-03-19T00:30:21.856Z,2.23
2023-03-19T00:32:49.473Z,1.93
2023-03-19T00:35:17.159Z,2.33
2023-03-19T00:37:44.725Z,2.50
2023-03-19T00:40:12.592Z,2.70
2023-03-19T00:42:40.194Z,2.70
2023-03-19T00:45:08.051Z,2.50
2023-03-19T00:47:35.639Z,2.97
2023-03-19T00:50:04.335Z,2.57
2023-03-19T00:52:32.155Z,2.47
2023-03-19T00:54:59.633Z,2.50
2023-03-19T00:57:27.220Z,2.50
2023-03-19T00:59:54.799Z,2.30
2023-03-19T01:02:22.355Z,2.47
2023-03-19T01:04:50.072Z,2.40
2023-03-19T01:07:17.778Z,3.27
2023-03-19T01:09:45.281Z,3.13
2023-03-19T01:12:12.856Z,3.37
2023-03-19T01:14:40.390Z,3.07
2023-03-19T01:17:07.994Z,3.03
2023-03-19T01:19:35.507Z,2.70
2023-03-19T01:22:03.065Z,3.20
2023-03-19T01:24:31.506Z,3.03
2023-03-19T01:26:59.079Z,3.37
2023-03-19T01:29:26.630Z,3.10
2023-03-19T01:31:54.138Z,2.87
2023-03-19T01:34:21.631Z,3.10
2023-03-19T01:36:49.392Z,2.93
2023-03-19T01:39:16.961Z,2.60
2023-03-19T01:41:44.519Z,2.53
2023-03-19T01:44:44.328Z,2.47
2023-03-19T01:47:20.164Z,2.90
2023-03-19T01:49:53.948Z,2.97
2023-03-19T01:52:22.270Z,2.60
2023-03-19T01:54:49.875Z,2.53
2023-03-19T01:57:17.800Z,2.50
2023-03-19T01:59:49.694Z,2.20
2023-03-19T02:02:22.021Z,2.87
2023-03-19T02:04:51.733Z,2.57
2023-03-19T02:07:19.738Z,2.80
2023-03-19T02:09:47.550Z,2.80
2023-03-19T02:12:15.417Z,2.63
2023-03-19T02:14:42.990Z,2.73
2023-03-19T02:17:10.622Z,3.03
2023-03-19T02:19:47.877Z,3.23
2023-03-19T02:22:17.413Z,2.90
2023-03-19T02:24:56.986Z,2.93
2023-03-19T02:27:24.528Z,3.20
2023-03-19T02:29:52.080Z,3.30
2023-03-19T02:32:19.630Z,3.17
2023-03-19T02:34:47.174Z,3.40
2023-03-19T02:37:17.887Z,3.40
2023-03-19T02:40:00.693Z,3.07
2023-03-19T02:42:29.630Z,3.50
2023-03-19T02:44:57.825Z,3.50
2023-03-19T02:47:25.955Z,3.13
2023-03-19T02:49:53.724Z,3.50
2023-03-19T02:52:21.290Z,3.93
2023-03-19T02:54:48.861Z,3.60
2023-03-19T02:57:16.523Z,4.93
2023-03-19T02:59:44.048Z,3.90
2023-03-19T03:02:11.840Z,3.57
2023-03-19T03:04:39.429Z,3.90
2023-03-19T03:07:07.028Z,4.30
2023-03-19T03:09:34.728Z,4.60
2023-03-19T03:12:02.417Z,4.17
2023-03-19T03:14:29.958Z,4.07
2023-03-19T03:17:00.664Z,3.47
2023-03-19T03:19:28.211Z,3.70
2023-03-19T03:21:55.742Z,3.83
2023-03-19T03:24:23.298Z,4.33
2023-03-19T03:26:50.796Z,3.90
2023-03-19T03:29:18.358Z,4.17
2023-03-19T03:31:45.872Z,4.00
2023-03-19T03:34:13.461Z,3.73
2023-03-19T03:36:43.987Z,5.07
2023-03-19T03:39:11.602Z,4.27
2023-03-19T03:41:39.084Z,3.70
2023-03-19T03:44:06.644Z,4.30
2023-03-19T03:46:34.139Z,4.37
2023-03-19T03:49:01.821Z,4.13
2023-03-19T03:51:29.356Z,4.17
2023-03-19T03:53:56.898Z,4.07
2023-03-19T03:56:24.386Z,4.10
2023-03-19T03:58:51.963Z,4.13
2023-03-19T04:01:19.697Z,4.20
2023-03-19T04:03:47.236Z,3.97
2023-03-19T04:06:16.382Z,3.77
2023-03-19T04:08:44.028Z,3.87
2023-03-19T04:11:11.633Z,3.80
2023-03-19T04:13:39.297Z,3.43
2023-03-19T04:16:07.406Z,3.77
2023-03-19T04:18:35.165Z,4.07
2023-03-19T04:21:02.896Z,3.73
2023-03-19T04:23:30.502Z,3.33
2023-03-19T04:26:01.742Z,3.67
2023-03-19T04:28:29.615Z,3.37
2023-03-19T04:31:01.094Z,3.77
2023-03-19T04:33:29.010Z,3.87
2023-03-19T04:35:56.740Z,3.63
2023-03-19T04:38:24.601Z,4.17
2023-03-19T04:40:52.076Z,3.20
2023-03-19T04:43:19.870Z,3.13
2023-03-19T04:45:47.453Z,3.00
2023-03-19T04:48:15.033Z,2.87
2023-03-19T04:50:42.535Z,2.93
2023-03-19T04:53:10.061Z,3.00
2023-03-19T04:55:37.647Z,3.03
2023-03-19T04:58:05.332Z,3.03
2023-03-19T05:00:33.120Z,2.83
2023-03-19T05:03:00.966Z,2.80
2023-03-19T05:05:28.517Z,3.10
2023-03-19T05:07:56.073Z,2.97
2023-03-19T05:10:23.879Z,3.00
2023-03-19T05:12:51.406Z,3.40
2023-03-19T05:15:18.938Z,2.87
2023-03-19T05:17:46.526Z,3.17
2023-03-19T05:20:14.023Z,3.20
2023-03-19T05:22:41.574Z,2.83
2023-03-19T05:25:09.134Z,3.30
2023-03-19T05:27:36.739Z,3.80
2023-03-19T05:30:04.870Z,3.90
2023-03-19T05:32:32.451Z,3.67
2023-03-19T05:35:00.115Z,3.73
2023-03-19T05:37:27.692Z,3.57
2023-03-19T05:39:55.170Z,3.57
2023-03-19T05:42:22.758Z,3.43
2023-03-19T05:44:50.226Z,3.30
2023-03-19T05:47:18.036Z,4.27
2023-03-19T05:49:45.545Z,3.87
2023-03-19T05:52:13.039Z,4.33
2023-03-19T05:54:40.597Z,3.50
2023-03-19T05:57:08.531Z,4.20
2023-03-19T05:59:36.129Z,3.87
2023-03-19T06:02:03.694Z,3.50
2023-03-19T06:04:31.276Z,4.20
2023-03-19T06:06:58.802Z,4.40
2023-03-19T06:09:26.440Z,4.27
2023-03-19T06:11:53.921Z,4.17
2023-03-19T06:14:21.469Z,4.47
2023-03-19T06:16:48.950Z,3.80
2023-03-19T06:19:16.522Z,4.50
2023-03-19T06:21:44.047Z,4.07
2023-03-19T06:24:11.619Z,4.13
2023-03-19T06:26:39.271Z,4.90
2023-03-19T06:29:06.816Z,4.00
2023-03-19T06:31:34.483Z,4.00
2023-03-19T06:34:02.037Z,4.73
2023-03-19T06:36:29.573Z,4.10
2023-03-19T06:38:57.182Z,4.03
2023-03-19T06:41:24.672Z,4.23
2023-03-19T06:43:52.225Z,3.70
2023-03-19T06:46:19.848Z,4.40
2023-03-19T06:48:47.464Z,4.20
2023-03-19T06:51:14.978Z,4.50
2023-03-19T06:53:42.503Z,4.73
2023-03-19T06:56:09.994Z,4.33
2023-03-19T06:58:37.573Z,4.63
2023-03-19T07:01:05.237Z,4.63
2023-03-19T07:03:32.822Z,5.40
2023-03-19T07:06:00.265Z,5.37
2023-03-19T07:08:28.506Z,4.53
2023-03-19T07:10:56.707Z,4.50
2023-03-19T07:13:24.393Z,4.77
2023-03-19T07:15:51.841Z,4.77
2023-03-19T07:18:19.373Z,4.80
2023-03-19T07:20:46.832Z,4.97
2023-03-19T07:23:14.412Z,4.30
2023-03-19T07:25:42.057Z,4.40
2023-03-19T07:28:09.597Z,4.87
2023-03-19T07:30:37.052Z,4.23
2023-03-19T07:33:05.212Z,5.03
2023-03-19T07:35:32.733Z,5.20
2023-03-19T07:38:00.513Z,4.93
2023-03-19T07:40:28.014Z,5.20
2023-03-19T07:42:55.634Z,4.90
2023-03-19T07:45:23.246Z,4.80
2023-03-19T07:47:51.182Z,5.03
2023-03-19T07:50:18.921Z,4.60
2023-03-19T07:52:49.938Z,4.40
2023-03-19T07:55:17.596Z,3.63
2023-03-19T07:57:45.074Z,3.93
2023-03-19T08:00:12.962Z,3.80
2023-03-19T08:02:40.717Z,4.00
2023-03-19T08:05:08.405Z,4.30
2023-03-19T08:07:36.467Z,4.13
2023-03-19T08:10:05.132Z,3.97
2023-03-19T08:12:32.658Z,4.57
2023-03-19T08:15:00.200Z,4.10
2023-03-19T08:17:27.701Z,3.87
2023-03-19T08:19:55.232Z,3.90
2023-03-19T08:22:22.767Z,4.00
2023-03-19T08:24:50.345Z,4.50
2023-03-19T08:27:17.998Z,3.60
2023-03-19T08:29:45.754Z,4.27
2023-03-19T08:32:13.392Z,4.53
2023-03-19T08:34:40.939Z,4.83
2023-03-19T08:37:08.517Z,4.20
2023-03-19T08:39:36.069Z,4.40
2023-03-19T08:42:03.556Z,4.40
2023-03-19T08:44:31.086Z,4.53
2023-03-19T08:46:58.580Z,3.90
2023-03-19T08:49:26.215Z,4.40
2023-03-19T08:51:53.720Z,4.50
2023-03-19T08:54:22.908Z,4.33
2023-03-19T08:56:50.678Z,4.87
2023-03-19T08:59:18.322Z,4.27
2023-03-19T09:01:45.967Z,4.57
2023-03-19T09:04:13.585Z,3.60
2023-03-19T09:06:41.090Z,3.57
2023-03-19T09:09:08.681Z,2.70
2023-03-19T09:11:36.252Z,2.80
2023-03-19T09:14:04.067Z,3.50
2023-03-19T09:16:31.711Z,3.27
2023-03-19T09:18:59.546Z,3.50
2023-03-19T09:21:27.077Z,3.90
2023-03-19T09:23:54.649Z,4.20
2023-03-19T09:26:22.282Z,3.53
2023-03-19T09:28:49.984Z,4.23
2023-03-19T09:31:17.494Z,4.00
2023-03-19T09:33:45.124Z,4.20
2023-03-19T09:36:12.672Z,4.80
2023-03-19T09:38:40.272Z,5.17
2023-03-19T09:41:10.615Z,5.27
2023-03-19T09:43:43.502Z,5.27
2023-03-19T09:46:31.383Z,5.40
2023-03-19T09:49:05.250Z,5.70
2023-03-19T09:51:39.941Z,5.20
2023-03-19T09:54:09.270Z,5.60
2023-03-19T09:56:36.827Z,4.80
2023-03-19T09:59:04.350Z,5.17
2023-03-19T10:01:36.881Z,4.93
2023-03-19T10:04:16.748Z,4.97
2023-03-19T10:06:44.367Z,5.40
2023-03-19T10:09:35.196Z,4.93
2023-03-19T10:12:02.722Z,4.73
2023-03-19T10:14:39.128Z,4.93
2023-03-19T10:17:08.046Z,5.07
2023-03-19T10:19:45.736Z,4.43
2023-03-19T10:22:19.983Z,4.37
2023-03-19T10:24:48.131Z,4.93
2023-03-19T10:27:16.999Z,4.70
2023-03-19T10:29:44.610Z,4.87
2023-03-19T10:32:15.167Z,4.80
2023-03-19T10:34:43.731Z,4.50
2023-03-19T10:37:14.354Z,4.87
2023-03-19T10:39:43.626Z,5.27
2023-03-19T10:42:31.968Z,4.80
2023-03-19T10:45:10.525Z,4.80
2023-03-19T10:47:41.734Z,4.57
2023-03-19T10:50:15.635Z,3.90
2023-03-19T10:52:43.580Z,3.90
2023-03-19T10:55:18.392Z,4.30
2023-03-19T10:57:49.477Z,2.63
2023-03-19T11:00:17.408Z,2.97
2023-03-19T11:02:47.630Z,2.17
2023-03-19T11:05:15.263Z,2.37
2023-03-19T11:07:42.836Z,2.13
2023-03-19T11:10:15.601Z,1.73
2023-03-19T11:12:47.895Z,2.07
2023-03-19T11:15:20.082Z,1.70
2023-03-19T11:17:56.468Z,2.50
2023-03-19T11:20:27.945Z,2.63
2023-03-19T11:22:57.092Z,2.80
2023-03-19T11:25:24.721Z,2.20
2023-03-19T11:27:59.434Z,2.50
2023-03-19T11:30:29.191Z,2.30
2023-03-19T11:33:15.551Z,2.10
2023-03-19T11:35:50.037Z,2.30
2023-03-19T11:38:25.785Z,2.00
2023-03-19T11:41:01.635Z,2.13
2023-03-19T11:43:45.050Z,2.40
2023-03-19T11:46:27.700Z,2.50
2023-03-19T11:49:09.555Z,2.50
2023-03-19T11:51:39.902Z,2.60
2023-03-19T11:54:30.483Z,2.80
2023-03-19T11:57:04.629Z,2.50
2023-03-19T11:59:37.923Z,2.83
2023-03-19T12:02:24.102Z,2.17
2023-03-19T12:04:51.685Z,2.73
2023-03-19T12:07:22.303Z,2.53
2023-03-19T12:09:52.736Z,2.23
2023-03-19T12:12:27.198Z,2.23
2023-03-19T12:15:09.783Z,2.70
2023-03-19T12:17:52.601Z,1.97
2023-03-19T12:20:49.268Z,2.17
2023-03-19T12:23:36.165Z,2.30
2023-03-19T12:26:05.276Z,2.63
2023-03-19T12:28:39.602Z,2.30
2023-03-19T12:31:10.305Z,1.83
2023-03-19T12:33:49.480Z,2.00
2023-03-19T12:36:20.805Z,1.90
2023-03-19T12:39:11.408Z,2.10
2023-03-19T12:41:42.133Z,2.20
2023-03-19T12:44:09.701Z,2.20
2023-03-19T12:46:39.937Z,2.43
2023-03-19T12:49:11.714Z,2.70
2023-03-19T12:51:41.196Z,2.60
2023-03-19T12:54:23.935Z,2.43
2023-03-19T12:57:00.681Z,2.80
2023-03-19T12:59:38.648Z,2.63
2023-03-19T13:02:25.179Z,2.67
2023-03-19T13:05:02.040Z,3.03
2023-03-19T13:07:33.730Z,3.20
2023-03-19T13:10:07.234Z,2.80
2023-03-19T13:12:36.596Z,2.80
2023-03-19T13:15:10.029Z,2.87
2023-03-19T13:17:42.868Z,2.97
2023-03-19T13:20:19.463Z,2.50
2023-03-19T13:22:57.578Z,2.47
2023-03-19T13:25:28.253Z,2.57
2023-03-19T13:27:56.392Z,2.80
2023-03-19T13:30:24.492Z,3.30
2023-03-19T13:32:53.949Z,2.73
2023-03-19T13:35:27.337Z,3.30
2023-03-19T13:38:00.470Z,2.90
2023-03-19T13:40:42.302Z,2.83
2023-03-19T13:43:30.149Z,3.27
2023-03-19T13:46:13.076Z,3.80
2023-03-19T13:48:46.411Z,3.43
2023-03-19T13:51:20.072Z,3.80
2023-03-19T13:54:05.902Z,4.20
2023-03-19T13:56:33.741Z,4.67
2023-03-19T13:59:16.298Z,4.60
2023-03-19T14:01:44.649Z,4.80
2023-03-19T14:04:32.259Z,4.43
2023-03-19T14:07:09.102Z,4.53
2023-03-19T14:09:41.583Z,5.00
2023-03-19T14:12:18.299Z,4.93
2023-03-19T14:15:04.821Z,4.07
2023-03-19T14:17:33.883Z,3.57
2023-03-19T14:20:08.468Z,4.07
2023-03-19T14:22:36.785Z,4.40
2023-03-19T14:25:05.972Z,4.40
2023-03-19T14:27:36.272Z,4.53
2023-03-19T14:30:09.239Z,4.17
2023-03-19T14:32:38.583Z,4.27
2023-03-19T14:35:06.913Z,4.10
2023-03-19T14:37:37.567Z,4.77
2023-03-19T14:40:23.422Z,4.70
2023-03-19T14:42:58.290Z,4.10
2023-03-19T14:45:44.484Z,3.50
2023-03-19T14:48:25.383Z,3.37
2023-03-19T14:50:55.929Z,3.20
2023-03-19T14:53:26.592Z,3.30
2023-03-19T14:55:54.172Z,2.90
2023-03-19T14:58:22.011Z,3.30
2023-03-19T15:00:50.597Z,3.07
2023-03-19T15:03:31.567Z,2.70
2023-03-19T15:06:00.609Z,3.87
2023-03-19T15:08:30.651Z,3.00
2023-03-19T15:11:02.502Z,5.03
2023-03-19T15:13:48.928Z,5.43
2023-03-19T15:16:28.836Z,4.67
2023-03-19T15:18:56.416Z,5.70
2023-03-19T15:21:23.935Z,5.07
2023-03-19T15:23:51.533Z,4.13
2023-03-19T15:26:30.603Z,4.70
2023-03-19T15:28:58.171Z,4.37
2023-03-19T15:31:49.530Z,3.77
2023-03-19T15:34:19.865Z,4.80
2023-03-19T15:36:47.702Z,4.50
2023-03-19T15:39:17.749Z,4.20
2023-03-19T15:41:46.915Z,4.00
2023-03-19T15:44:17.957Z,4.00
2023-03-19T15:46:46.655Z,3.60
2023-03-19T15:49:14.133Z,4.40
2023-03-19T15:51:42.301Z,3.60
2023-03-19T15:54:09.866Z,3.97
2023-03-19T15:56:37.833Z,4.00
2023-03-19T15:59:05.429Z,4.27
2023-03-19T16:01:33.998Z,2.90
2023-03-19T16:04:06.511Z,2.10
2023-03-19T16:06:37.794Z,2.80
2023-03-19T16:09:24.802Z,2.37
2023-03-19T16:11:52.732Z,2.97
2023-03-19T16:14:35.842Z,2.37
2023-03-19T16:17:10.322Z,2.43
2023-03-19T16:19:38.768Z,2.10
2023-03-19T16:22:16.791Z,2.53
2023-03-19T16:24:46.732Z,2.47
2023-03-19T16:27:15.617Z,2.37
2023-03-19T16:29:44.623Z,2.30
2023-03-19T16:32:12.154Z,2.20
2023-03-19T16:34:43.494Z,2.17
2023-03-19T16:37:46.767Z,2.73
2023-03-19T16:40:14.368Z,2.90
2023-03-19T16:42:42.355Z,3.33
2023-03-19T16:45:16.145Z,3.10
2023-03-19T16:47:44.545Z,3.40
2023-03-19T16:50:14.630Z,3.80
2023-03-19T16:52:43.402Z,3.47
2023-03-19T16:55:24.834Z,3.07
2023-03-19T16:57:56.520Z,2.70
2023-03-19T17:00:24.711Z,2.30
2023-03-19T17:02:55.528Z,2.57
2023-03-19T17:05:23.481Z,2.83
2023-03-19T17:07:51.055Z,2.80
2023-03-19T17:10:19.747Z,2.50
2023-03-19T17:12:48.876Z,2.50
2023-03-19T17:15:23.015Z,2.80
2023-03-19T17:17:51.213Z,2.67
2023-03-19T17:20:28.195Z,3.30
2023-03-19T17:22:55.719Z,3.03
2023-03-19T17:25:23.863Z,3.43
2023-03-19T17:27:51.426Z,3.57
2023-03-19T17:30:19.096Z,3.20
2023-03-19T17:32:47.962Z,3.63
2023-03-19T17:35:19.656Z,3.87
2023-03-19T17:37:47.559Z,3.77
2023-03-19T17:40:25.861Z,3.57
2023-03-19T17:42:54.462Z,3.97
2023-03-19T17:45:25.519Z,4.20
2023-03-19T17:47:54.183Z,4.20
2023-03-19T17:50:23.275Z,4.33
2023-03-19T17:52:51.055Z,4.40
2023-03-19T17:55:20.188Z,3.50
2023-03-19T17:57:47.873Z,3.90
2023-03-19T18:00:15.759Z,3.60
2023-03-19T18:02:44.149Z,3.93
2023-03-19T18:05:15.617Z,4.40
2023-03-19T18:07:43.741Z,4.90
2023-03-19T18:10:16.013Z,4.33
2023-03-19T18:12:43.938Z,4.93
2023-03-19T18:15:12.593Z,3.77
2023-03-19T18:17:42.132Z,3.50
2023-03-19T18:20:13.650Z,2.90
2023-03-19T18:22:41.227Z,3.43
2023-03-19T18:25:16.800Z,5.67
2023-03-19T18:27:44.845Z,5.37
2023-03-19T18:30:13.715Z,3.90
2023-03-19T18:32:41.680Z,3.60
2023-03-19T18:35:15.662Z,3.90
2023-03-19T18:37:44.173Z,3.20
2023-03-19T18:40:14.446Z,3.87
2023-03-19T18:42:42.109Z,3.60
2023-03-19T18:45:10.230Z,3.90
2023-03-19T18:47:37.895Z,3.93
2023-03-19T18:50:15.305Z,4.07
2023-03-19T18:52:43.004Z,4.70
2023-03-19T18:55:11.533Z,4.10
2023-03-19T18:57:47.866Z,4.53
2023-03-19T19:00:21.718Z,3.80
2023-03-19T19:02:49.844Z,5.73
2023-03-19T19:05:18.508Z,7.40
2023-03-19T19:07:46.148Z,7.67
2023-03-19T19:10:13.790Z,7.23
2023-03-19T19:12:42.715Z,8.27
2023-03-19T19:15:28.754Z,8.13
2023-03-19T19:17:56.826Z,10.23
2023-03-19T19:20:25.727Z,10.70
2023-03-19T19:22:53.611Z,10.80
2023-03-19T19:25:30.485Z,9.97
2023-03-19T19:28:14.202Z,11.47
2023-03-19T19:30:41.838Z,11.50
2023-03-19T19:33:16.182Z,11.10
2023-03-19T19:35:43.845Z,11.27
2023-03-19T19:38:11.355Z,12.07
2023-03-19T19:40:39.393Z,11.33
2023-03-19T19:43:11.753Z,11.83
2023-03-19T19:45:39.641Z,15.00
2023-03-19T19:48:13.841Z,15.37
2023-03-19T19:50:41.444Z,16.23
2023-03-19T19:53:08.929Z,16.07
2023-03-19T19:55:36.842Z,16.07
2023-03-19T19:58:07.436Z,16.47
2023-03-19T20:00:36.075Z,16.57
2023-03-19T20:03:03.628Z,17.93
2023-03-19T20:05:33.285Z,17.50
2023-03-19T20:08:02.230Z,18.70
2023-03-19T20:10:30.997Z,17.80
2023-03-19T20:13:01.623Z,20.67
2023-03-19T20:15:30.859Z,19.47
2023-03-19T20:17:58.394Z,20.03
2023-03-19T20:20:27.673Z,19.50
2023-03-19T20:22:55.978Z,20.43
2023-03-19T20:25:24.583Z,20.10
2023-03-19T20:27:53.467Z,18.33
2023-03-19T20:30:21.117Z,18.73
2023-03-19T20:32:49.089Z,18.17
2023-03-19T20:35:18.147Z,19.67
2023-03-19T20:37:45.716Z,19.73
2023-03-19T20:40:13.756Z,18.43
2023-03-19T20:42:41.854Z,20.03
2023-03-19T20:45:14.924Z,19.93
2023-03-19T20:47:42.528Z,17.67
2023-03-19T20:50:36.477Z,17.60
2023-03-19T20:53:04.103Z,17.27
2023-03-19T20:55:32.950Z,16.23
2023-03-19T20:58:01.416Z,16.47
2023-03-19T21:00:30.191Z,15.83
2023-03-19T21:02:58.554Z,17.50
2023-03-19T21:05:30.684Z,16.73
2023-03-19T21:07:58.276Z,16.17
2023-03-19T21:10:37.668Z,16.07
2023-03-19T21:13:05.548Z,16.93
2023-03-19T21:15:33.416Z,17.17
2023-03-19T21:18:01.028Z,18.10
2023-03-19T21:20:29.941Z,15.90
2023-03-19T21:23:09.296Z,16.43
2023-03-19T21:25:37.238Z,15.77
2023-03-19T21:28:07.209Z,16.77
2023-03-19T21:30:37.716Z,15.67
2023-03-19T21:33:05.255Z,16.20
2023-03-19T21:35:32.917Z,15.63
2023-03-19T21:38:00.647Z,13.73
2023-03-19T21:40:29.818Z,11.90
2023-03-19T21:42:58.669Z,10.87
2023-03-19T21:45:30.440Z,9.27
2023-03-19T21:48:10.059Z,9.23
2023-03-19T21:50:37.552Z,9.33
2023-03-19T21:53:05.027Z,7.93
2023-03-19T21:55:33.607Z,8.70
2023-03-19T21:58:01.234Z,7.50
2023-03-19T22:00:30.005Z,7.53
2023-03-19T22:02:57.497Z,7.57
2023-03-19T22:05:29.091Z,7.53
2023-03-19T22:07:56.825Z,7.63
2023-03-19T22:10:25.436Z,7.20
2023-03-19T22:12:53.242Z,7.13
2023-03-19T22:15:20.726Z,6.83
2023-03-19T22:17:49.020Z,6.57
2023-03-19T22:20:17.359Z,7.30
2023-03-19T22:22:45.332Z,7.60
2023-03-19T22:25:13.679Z,7.60
2023-03-19T22:27:42.206Z,7.50
2023-03-19T22:30:33.203Z,6.67
2023-03-19T22:33:01.428Z,6.97
2023-03-19T22:35:29.198Z,6.37
2023-03-19T22:37:56.807Z,6.77
2023-03-19T22:40:26.466Z,6.87
2023-03-19T22:42:54.100Z,7.10
2023-03-19T22:45:26.853Z,6.47
2023-03-19T22:47:55.029Z,7.20
2023-03-19T22:50:24.369Z,6.70
2023-03-19T22:52:52.587Z,6.80
2023-03-19T22:55:20.288Z,7.10
2023-03-19T22:57:48.220Z,6.70
2023-03-19T23:00:18.045Z,6.73
2023-03-19T23:02:46.677Z,7.37
2023-03-19T23:05:29.161Z,7.53
2023-03-19T23:07:56.822Z,6.90
2023-03-19T23:10:25.431Z,6.83
2023-03-19T23:12:53.571Z,6.83
2023-03-19T23:15:21.371Z,7.17
2023-03-19T23:17:49.952Z,7.60
2023-03-19T23:20:20.997Z,6.50
2023-03-19T23:22:48.626Z,6.97
2023-03-19T23:25:18.672Z,7.23
2023-03-19T23:27:46.659Z,6.77
2023-03-19T23:30:17.294Z,7.10
2023-03-19T23:32:44.892Z,7.10
2023-03-19T23:35:19.893Z,6.73
2023-03-19T23:37:47.640Z,6.47
2023-03-19T23:40:18.502Z,6.43
2023-03-19T23:42:47.574Z,7.23
2023-03-19T23:45:38.294Z,6.37
2023-03-19T23:48:13.684Z,7.23
2023-03-19T23:50:41.216Z,7.23
2023-03-19T23:53:16.007Z,7.60
2023-03-19T23:55:43.553Z,7.07
2023-03-19T23:58:11.058Z,6.67
